sensor_id;sensor_type;location;lat;lon;timestamp;temperature;humidity
14924;DHT22;7554;43.600;1.480;2023-07-20T00:00:11;22.30;1.00
14924;DHT22;7554;43.600;1.480;2023-07-20T00:02:39;22.30;1.00
14924;DHT22;7554;43.600;1.480;2023-07-20T00:05:07;22.20;1.00
14924;DHT22;7554;43.600;1.480;2023-07-20T00:07:34;22.30;1.00
14924;DHT22;7554;43.600;1.480;2023-07-20T00:10:01;22.20;1.00
14924;DHT22;7554;43.600;1.480;2023-07-20T00:12:30;22.20;1.00
14924;DHT22;7554;43.600;1.480;2023-07-20T00:14:57;22.20;1.00
14924;DHT22;7554;43.600;1.480;2023-07-20T00:17:24;22.10;1.00
14924;DHT22;7554;43.600;1.480;2023-07-20T00:19:52;22.10;1.00
14924;DHT22;7554;43.600;1.480;2023-07-20T00:22:19;22.10;1.00
14924;DHT22;7554;43.600;1.480;2023-07-20T00:24:46;22.10;1.00
14924;DHT22;7554;43.600;1.480;2023-07-20T00:27:15;22.00;1.00
14924;DHT22;7554;43.600;1.480;2023-07-20T00:29:44;22.00;1.00
14924;DHT22;7554;43.600;1.480;2023-07-20T00:32:11;22.00;1.00
14924;DHT22;7554;43.600;1.480;2023-07-20T00:34:38;22.00;1.00
14924;DHT22;7554;43.600;1.480;2023-07-20T00:37:05;22.00;1.00
14924;DHT22;7554;43.600;1.480;2023-07-20T00:39:33;21.90;1.00
14924;DHT22;7554;43.600;1.480;2023-07-20T00:42:00;21.90;1.00
14924;DHT22;7554;43.600;1.480;2023-07-20T00:44:27;21.90;1.00
14924;DHT22;7554;43.600;1.480;2023-07-20T00:46:56;21.90;1.00
14924;DHT22;7554;43.600;1.480;2023-07-20T00:49:24;21.90;1.00
14924;DHT22;7554;43.600;1.480;2023-07-20T00:51:51;21.80;1.00
14924;DHT22;7554;43.600;1.480;2023-07-20T00:54:18;21.80;1.00
14924;DHT22;7554;43.600;1.480;2023-07-20T00:56:46;21.70;1.00
14924;DHT22;7554;43.600;1.480;2023-07-20T00:59:13;21.70;1.00
14924;DHT22;7554;43.600;1.480;2023-07-20T01:01:41;21.70;1.00
14924;DHT22;7554;43.600;1.480;2023-07-20T01:04:10;21.70;1.00
14924;DHT22;7554;43.600;1.480;2023-07-20T01:06:44;21.70;1.00
14924;DHT22;7554;43.600;1.480;2023-07-20T01:09:16;21.60;1.00
14924;DHT22;7554;43.600;1.480;2023-07-20T01:11:52;21.60;1.00
14924;DHT22;7554;43.600;1.480;2023-07-20T01:14:20;21.60;1.00
14924;DHT22;7554;43.600;1.480;2023-07-20T01:16:48;21.50;1.00
14924;DHT22;7554;43.600;1.480;2023-07-20T01:19:19;21.50;1.00
14924;DHT22;7554;43.600;1.480;2023-07-20T01:21:53;21.50;1.00
14924;DHT22;7554;43.600;1.480;2023-07-20T01:24:57;21.40;1.00
14924;DHT22;7554;43.600;1.480;2023-07-20T01:28:12;21.40;1.00
14924;DHT22;7554;43.600;1.480;2023-07-20T01:30:52;21.40;1.00
14924;DHT22;7554;43.600;1.480;2023-07-20T01:33:24;21.40;1.00
14924;DHT22;7554;43.600;1.480;2023-07-20T01:35:55;21.40;1.00
14924;DHT22;7554;43.600;1.480;2023-07-20T01:38:24;21.30;1.00
14924;DHT22;7554;43.600;1.480;2023-07-20T01:40:52;21.30;1.00
14924;DHT22;7554;43.600;1.480;2023-07-20T01:43:19;21.30;1.00
14924;DHT22;7554;43.600;1.480;2023-07-20T01:45:46;21.20;1.00
14924;DHT22;7554;43.600;1.480;2023-07-20T01:48:13;21.20;1.00
14924;DHT22;7554;43.600;1.480;2023-07-20T01:50:42;21.20;1.00
14924;DHT22;7554;43.600;1.480;2023-07-20T01:53:10;21.20;1.00
14924;DHT22;7554;43.600;1.480;2023-07-20T01:55:37;21.10;1.00
14924;DHT22;7554;43.600;1.480;2023-07-20T01:58:04;21.10;1.00
14924;DHT22;7554;43.600;1.480;2023-07-20T02:00:32;21.10;1.00
14924;DHT22;7554;43.600;1.480;2023-07-20T02:02:59;21.10;1.00
14924;DHT22;7554;43.600;1.480;2023-07-20T02:05:27;21.10;1.00
14924;DHT22;7554;43.600;1.480;2023-07-20T02:07:55;21.00;1.00
14924;DHT22;7554;43.600;1.480;2023-07-20T02:10:23;21.00;1.00
14924;DHT22;7554;43.600;1.480;2023-07-20T02:12:50;21.00;1.00
14924;DHT22;7554;43.600;1.480;2023-07-20T02:15:17;21.00;1.00
14924;DHT22;7554;43.600;1.480;2023-07-20T02:17:45;21.00;1.00
14924;DHT22;7554;43.600;1.480;2023-07-20T02:20:12;21.00;1.00
14924;DHT22;7554;43.600;1.480;2023-07-20T02:22:40;20.90;1.00
14924;DHT22;7554;43.600;1.480;2023-07-20T02:25:09;20.90;1.00
14924;DHT22;7554;43.600;1.480;2023-07-20T02:27:37;20.90;1.00
14924;DHT22;7554;43.600;1.480;2023-07-20T02:30:05;20.90;1.00
14924;DHT22;7554;43.600;1.480;2023-07-20T02:32:34;20.90;1.00
14924;DHT22;7554;43.600;1.480;2023-07-20T02:35:01;20.80;1.00
14924;DHT22;7554;43.600;1.480;2023-07-20T02:37:29;20.80;1.00
14924;DHT22;7554;43.600;1.480;2023-07-20T02:39:56;20.80;1.00
14924;DHT22;7554;43.600;1.480;2023-07-20T02:42:25;20.70;1.00
14924;DHT22;7554;43.600;1.480;2023-07-20T02:44:53;20.70;1.00
14924;DHT22;7554;43.600;1.480;2023-07-20T02:47:20;20.70;1.00
14924;DHT22;7554;43.600;1.480;2023-07-20T02:49:48;20.70;1.00
14924;DHT22;7554;43.600;1.480;2023-07-20T02:52:15;20.70;1.00
14924;DHT22;7554;43.600;1.480;2023-07-20T02:54:42;20.60;1.00
14924;DHT22;7554;43.600;1.480;2023-07-20T02:57:10;20.60;1.00
14924;DHT22;7554;43.600;1.480;2023-07-20T02:59:38;20.60;1.00
14924;DHT22;7554;43.600;1.480;2023-07-20T03:02:06;20.60;1.00
14924;DHT22;7554;43.600;1.480;2023-07-20T03:04:35;20.60;1.00
14924;DHT22;7554;43.600;1.480;2023-07-20T03:07:04;20.60;1.00
14924;DHT22;7554;43.600;1.480;2023-07-20T03:09:32;20.50;1.00
14924;DHT22;7554;43.600;1.480;2023-07-20T03:12:00;20.50;1.00
14924;DHT22;7554;43.600;1.480;2023-07-20T03:14:28;20.50;1.00
14924;DHT22;7554;43.600;1.480;2023-07-20T03:16:56;20.40;1.00
14924;DHT22;7554;43.600;1.480;2023-07-20T03:19:24;20.40;1.00
14924;DHT22;7554;43.600;1.480;2023-07-20T03:21:51;20.40;1.00
14924;DHT22;7554;43.600;1.480;2023-07-20T03:24:18;20.30;1.00
14924;DHT22;7554;43.600;1.480;2023-07-20T03:26:46;20.40;1.00
14924;DHT22;7554;43.600;1.480;2023-07-20T03:29:14;20.40;1.00
14924;DHT22;7554;43.600;1.480;2023-07-20T03:31:42;20.40;1.00
14924;DHT22;7554;43.600;1.480;2023-07-20T03:34:10;20.30;1.00
14924;DHT22;7554;43.600;1.480;2023-07-20T03:36:37;20.30;1.00
14924;DHT22;7554;43.600;1.480;2023-07-20T03:39:05;20.30;1.00
14924;DHT22;7554;43.600;1.480;2023-07-20T03:41:32;20.30;1.00
14924;DHT22;7554;43.600;1.480;2023-07-20T03:43:59;20.20;1.00
14924;DHT22;7554;43.600;1.480;2023-07-20T03:46:27;20.30;1.00
14924;DHT22;7554;43.600;1.480;2023-07-20T03:48:54;20.30;1.00
14924;DHT22;7554;43.600;1.480;2023-07-20T03:51:22;20.20;1.00
14924;DHT22;7554;43.600;1.480;2023-07-20T03:53:50;20.20;1.00
14924;DHT22;7554;43.600;1.480;2023-07-20T03:56:17;20.20;1.00
14924;DHT22;7554;43.600;1.480;2023-07-20T03:58:44;20.20;1.00
14924;DHT22;7554;43.600;1.480;2023-07-20T04:01:12;20.10;1.00
14924;DHT22;7554;43.600;1.480;2023-07-20T04:03:39;20.10;1.00
14924;DHT22;7554;43.600;1.480;2023-07-20T04:06:06;20.10;1.00
14924;DHT22;7554;43.600;1.480;2023-07-20T04:08:35;20.10;1.00
14924;DHT22;7554;43.600;1.480;2023-07-20T04:11:02;20.10;1.00
14924;DHT22;7554;43.600;1.480;2023-07-20T04:13:30;20.00;1.00
14924;DHT22;7554;43.600;1.480;2023-07-20T04:16:00;20.00;1.00
14924;DHT22;7554;43.600;1.480;2023-07-20T04:18:28;20.00;1.00
14924;DHT22;7554;43.600;1.480;2023-07-20T04:20:55;20.00;1.00
14924;DHT22;7554;43.600;1.480;2023-07-20T04:23:22;20.00;1.00
14924;DHT22;7554;43.600;1.480;2023-07-20T04:25:51;19.90;1.00
14924;DHT22;7554;43.600;1.480;2023-07-20T04:28:19;20.00;1.00
14924;DHT22;7554;43.600;1.480;2023-07-20T04:30:49;19.90;1.00
14924;DHT22;7554;43.600;1.480;2023-07-20T04:33:17;20.00;1.00
14924;DHT22;7554;43.600;1.480;2023-07-20T04:35:47;20.00;1.00
14924;DHT22;7554;43.600;1.480;2023-07-20T04:38:15;20.00;1.00
14924;DHT22;7554;43.600;1.480;2023-07-20T04:40:44;20.00;1.00
14924;DHT22;7554;43.600;1.480;2023-07-20T04:43:12;20.10;1.00
14924;DHT22;7554;43.600;1.480;2023-07-20T04:45:40;20.20;1.00
14924;DHT22;7554;43.600;1.480;2023-07-20T04:48:10;20.40;1.00
14924;DHT22;7554;43.600;1.480;2023-07-20T04:50:38;20.50;1.00
14924;DHT22;7554;43.600;1.480;2023-07-20T04:53:08;20.70;1.00
14924;DHT22;7554;43.600;1.480;2023-07-20T04:55:36;20.90;1.00
14924;DHT22;7554;43.600;1.480;2023-07-20T04:58:03;21.10;1.00
14924;DHT22;7554;43.600;1.480;2023-07-20T05:00:33;21.30;1.00
14924;DHT22;7554;43.600;1.480;2023-07-20T05:03:00;21.50;1.00
14924;DHT22;7554;43.600;1.480;2023-07-20T05:05:28;21.80;1.00
14924;DHT22;7554;43.600;1.480;2023-07-20T05:07:55;22.20;1.00
14924;DHT22;7554;43.600;1.480;2023-07-20T05:10:22;22.50;1.00
14924;DHT22;7554;43.600;1.480;2023-07-20T05:12:50;22.90;1.00
14924;DHT22;7554;43.600;1.480;2023-07-20T05:15:17;23.30;1.00
14924;DHT22;7554;43.600;1.480;2023-07-20T05:17:46;23.70;1.00
14924;DHT22;7554;43.600;1.480;2023-07-20T05:20:14;24.10;1.00
14924;DHT22;7554;43.600;1.480;2023-07-20T05:22:42;24.60;1.00
14924;DHT22;7554;43.600;1.480;2023-07-20T05:25:10;25.00;1.00
14924;DHT22;7554;43.600;1.480;2023-07-20T05:27:38;25.30;1.00
14924;DHT22;7554;43.600;1.480;2023-07-20T05:30:06;25.80;1.00
14924;DHT22;7554;43.600;1.480;2023-07-20T05:32:34;26.30;1.00
14924;DHT22;7554;43.600;1.480;2023-07-20T05:35:03;26.80;1.00
14924;DHT22;7554;43.600;1.480;2023-07-20T05:37:31;27.00;1.00
14924;DHT22;7554;43.600;1.480;2023-07-20T05:39:58;27.40;1.00
14924;DHT22;7554;43.600;1.480;2023-07-20T05:42:25;27.70;1.00
14924;DHT22;7554;43.600;1.480;2023-07-20T05:44:53;28.10;1.00
14924;DHT22;7554;43.600;1.480;2023-07-20T05:47:21;28.50;1.00
14924;DHT22;7554;43.600;1.480;2023-07-20T05:49:48;28.90;1.00
14924;DHT22;7554;43.600;1.480;2023-07-20T05:52:17;28.80;1.00
14924;DHT22;7554;43.600;1.480;2023-07-20T05:54:44;29.40;1.00
14924;DHT22;7554;43.600;1.480;2023-07-20T05:57:12;29.80;1.00
14924;DHT22;7554;43.600;1.480;2023-07-20T05:59:39;30.30;1.00
14924;DHT22;7554;43.600;1.480;2023-07-20T06:02:10;30.60;1.00
14924;DHT22;7554;43.600;1.480;2023-07-20T06:04:39;31.00;1.00
14924;DHT22;7554;43.600;1.480;2023-07-20T06:07:06;31.20;1.00
14924;DHT22;7554;43.600;1.480;2023-07-20T06:09:35;31.30;1.00
14924;DHT22;7554;43.600;1.480;2023-07-20T06:12:03;31.50;1.00
14924;DHT22;7554;43.600;1.480;2023-07-20T06:14:31;32.00;1.00
14924;DHT22;7554;43.600;1.480;2023-07-20T06:16:58;32.50;1.00
14924;DHT22;7554;43.600;1.480;2023-07-20T06:19:25;32.80;1.00
14924;DHT22;7554;43.600;1.480;2023-07-20T06:21:53;32.80;1.00
14924;DHT22;7554;43.600;1.480;2023-07-20T06:24:20;33.10;1.00
14924;DHT22;7554;43.600;1.480;2023-07-20T06:26:49;33.40;1.00
14924;DHT22;7554;43.600;1.480;2023-07-20T06:29:16;33.60;1.00
14924;DHT22;7554;43.600;1.480;2023-07-20T06:31:45;33.70;1.00
14924;DHT22;7554;43.600;1.480;2023-07-20T06:34:12;34.00;1.00
14924;DHT22;7554;43.600;1.480;2023-07-20T06:36:39;34.50;1.00
14924;DHT22;7554;43.600;1.480;2023-07-20T06:39:07;35.10;1.00
14924;DHT22;7554;43.600;1.480;2023-07-20T06:41:34;35.30;1.00
14924;DHT22;7554;43.600;1.480;2023-07-20T06:44:03;35.30;1.00
14924;DHT22;7554;43.600;1.480;2023-07-20T06:46:31;36.10;1.00
14924;DHT22;7554;43.600;1.480;2023-07-20T06:48:58;36.10;1.00
14924;DHT22;7554;43.600;1.480;2023-07-20T06:51:25;36.40;1.00
14924;DHT22;7554;43.600;1.480;2023-07-20T06:53:53;36.80;1.00
14924;DHT22;7554;43.600;1.480;2023-07-20T06:56:20;36.80;1.00
14924;DHT22;7554;43.600;1.480;2023-07-20T06:58:47;37.10;1.00
14924;DHT22;7554;43.600;1.480;2023-07-20T07:01:16;36.90;1.00
14924;DHT22;7554;43.600;1.480;2023-07-20T07:03:43;37.30;1.00
14924;DHT22;7554;43.600;1.480;2023-07-20T07:06:11;37.20;1.00
14924;DHT22;7554;43.600;1.480;2023-07-20T07:08:38;37.20;1.00
14924;DHT22;7554;43.600;1.480;2023-07-20T07:11:05;37.60;1.00
14924;DHT22;7554;43.600;1.480;2023-07-20T07:13:33;38.40;1.00
14924;DHT22;7554;43.600;1.480;2023-07-20T07:16:00;38.80;1.00
14924;DHT22;7554;43.600;1.480;2023-07-20T07:18:29;38.90;1.00
14924;DHT22;7554;43.600;1.480;2023-07-20T07:20:56;39.40;1.00
14924;DHT22;7554;43.600;1.480;2023-07-20T07:23:24;39.70;1.00
14924;DHT22;7554;43.600;1.480;2023-07-20T07:25:51;39.90;1.00
14924;DHT22;7554;43.600;1.480;2023-07-20T07:28:18;40.00;1.00
14924;DHT22;7554;43.600;1.480;2023-07-20T07:30:46;39.90;1.00
14924;DHT22;7554;43.600;1.480;2023-07-20T07:33:13;40.40;1.00
14924;DHT22;7554;43.600;1.480;2023-07-20T07:35:41;40.00;1.00
14924;DHT22;7554;43.600;1.480;2023-07-20T07:38:09;40.50;1.00
14924;DHT22;7554;43.600;1.480;2023-07-20T07:40:36;41.10;1.00
14924;DHT22;7554;43.600;1.480;2023-07-20T07:43:03;41.30;1.00
14924;DHT22;7554;43.600;1.480;2023-07-20T07:45:34;41.30;1.00
14924;DHT22;7554;43.600;1.480;2023-07-20T07:48:02;41.60;1.00
14924;DHT22;7554;43.600;1.480;2023-07-20T07:50:29;41.40;1.00
14924;DHT22;7554;43.600;1.480;2023-07-20T07:52:58;41.70;1.00
14924;DHT22;7554;43.600;1.480;2023-07-20T07:55:26;42.00;1.00
14924;DHT22;7554;43.600;1.480;2023-07-20T07:57:54;42.20;1.00
14924;DHT22;7554;43.600;1.480;2023-07-20T08:00:21;42.20;1.00
14924;DHT22;7554;43.600;1.480;2023-07-20T08:02:50;41.90;1.00
14924;DHT22;7554;43.600;1.480;2023-07-20T08:05:17;42.40;1.00
14924;DHT22;7554;43.600;1.480;2023-07-20T08:07:44;42.60;1.00
14924;DHT22;7554;43.600;1.480;2023-07-20T08:10:13;43.30;1.00
14924;DHT22;7554;43.600;1.480;2023-07-20T08:12:41;43.10;1.00
14924;DHT22;7554;43.600;1.480;2023-07-20T08:15:11;43.20;1.00
14924;DHT22;7554;43.600;1.480;2023-07-20T08:17:40;43.20;1.00
14924;DHT22;7554;43.600;1.480;2023-07-20T08:20:09;43.40;1.00
14924;DHT22;7554;43.600;1.480;2023-07-20T08:22:38;44.10;1.00
14924;DHT22;7554;43.600;1.480;2023-07-20T08:25:06;43.60;1.00
14924;DHT22;7554;43.600;1.480;2023-07-20T08:27:36;43.10;1.00
14924;DHT22;7554;43.600;1.480;2023-07-20T08:30:04;43.60;1.00
14924;DHT22;7554;43.600;1.480;2023-07-20T08:32:33;43.40;1.00
14924;DHT22;7554;43.600;1.480;2023-07-20T08:35:00;44.30;1.00
14924;DHT22;7554;43.600;1.480;2023-07-20T08:37:27;44.50;1.00
14924;DHT22;7554;43.600;1.480;2023-07-20T08:39:55;44.30;1.00
14924;DHT22;7554;43.600;1.480;2023-07-20T08:42:22;44.60;1.00
14924;DHT22;7554;43.600;1.480;2023-07-20T08:44:53;44.60;1.00
14924;DHT22;7554;43.600;1.480;2023-07-20T08:47:22;44.70;1.00
14924;DHT22;7554;43.600;1.480;2023-07-20T08:49:50;44.80;1.00
14924;DHT22;7554;43.600;1.480;2023-07-20T08:52:19;44.40;1.00
14924;DHT22;7554;43.600;1.480;2023-07-20T08:54:47;44.70;1.00
14924;DHT22;7554;43.600;1.480;2023-07-20T08:57:15;44.90;1.00
14924;DHT22;7554;43.600;1.480;2023-07-20T08:59:43;44.30;1.00
14924;DHT22;7554;43.600;1.480;2023-07-20T09:02:16;44.40;1.00
14924;DHT22;7554;43.600;1.480;2023-07-20T09:04:45;44.70;1.00
14924;DHT22;7554;43.600;1.480;2023-07-20T09:07:14;44.50;1.00
14924;DHT22;7554;43.600;1.480;2023-07-20T09:09:41;44.50;1.00
14924;DHT22;7554;43.600;1.480;2023-07-20T09:12:13;45.30;1.00
14924;DHT22;7554;43.600;1.480;2023-07-20T09:14:43;45.40;1.00
14924;DHT22;7554;43.600;1.480;2023-07-20T09:17:14;45.30;1.00
14924;DHT22;7554;43.600;1.480;2023-07-20T09:19:46;44.30;1.00
14924;DHT22;7554;43.600;1.480;2023-07-20T09:22:14;45.10;1.00
14924;DHT22;7554;43.600;1.480;2023-07-20T09:24:43;44.90;1.00
14924;DHT22;7554;43.600;1.480;2023-07-20T09:27:10;44.70;1.00
14924;DHT22;7554;43.600;1.480;2023-07-20T09:29:47;44.10;1.00
14924;DHT22;7554;43.600;1.480;2023-07-20T09:32:18;43.00;1.00
14924;DHT22;7554;43.600;1.480;2023-07-20T09:34:48;43.10;1.00
14924;DHT22;7554;43.600;1.480;2023-07-20T09:37:20;43.50;1.00
14924;DHT22;7554;43.600;1.480;2023-07-20T09:39:48;44.40;1.00
14924;DHT22;7554;43.600;1.480;2023-07-20T09:42:18;44.30;1.00
14924;DHT22;7554;43.600;1.480;2023-07-20T09:44:46;44.50;1.00
14924;DHT22;7554;43.600;1.480;2023-07-20T09:47:23;43.80;1.00
14924;DHT22;7554;43.600;1.480;2023-07-20T09:49:57;44.30;1.00
14924;DHT22;7554;43.600;1.480;2023-07-20T09:52:25;43.40;1.00
14924;DHT22;7554;43.600;1.480;2023-07-20T09:54:54;43.90;1.00
14924;DHT22;7554;43.600;1.480;2023-07-20T09:57:22;43.30;1.00
14924;DHT22;7554;43.600;1.480;2023-07-20T09:59:50;40.90;1.00
14924;DHT22;7554;43.600;1.480;2023-07-20T10:02:21;37.90;1.00
14924;DHT22;7554;43.600;1.480;2023-07-20T10:04:53;36.00;1.00
14924;DHT22;7554;43.600;1.480;2023-07-20T10:07:22;35.50;1.00
14924;DHT22;7554;43.600;1.480;2023-07-20T10:09:55;35.00;1.00
14924;DHT22;7554;43.600;1.480;2023-07-20T10:12:23;34.20;1.00
14924;DHT22;7554;43.600;1.480;2023-07-20T10:15:10;33.60;1.00
14924;DHT22;7554;43.600;1.480;2023-07-20T10:17:57;33.10;1.00
14924;DHT22;7554;43.600;1.480;2023-07-20T10:20:27;33.10;1.00
14924;DHT22;7554;43.600;1.480;2023-07-20T10:22:56;33.60;1.00
14924;DHT22;7554;43.600;1.480;2023-07-20T10:25:24;33.80;1.00
14924;DHT22;7554;43.600;1.480;2023-07-20T10:27:51;34.20;1.00
14924;DHT22;7554;43.600;1.480;2023-07-20T10:30:18;33.80;1.00
14924;DHT22;7554;43.600;1.480;2023-07-20T10:32:47;33.00;1.00
14924;DHT22;7554;43.600;1.480;2023-07-20T10:35:16;31.90;1.00
14924;DHT22;7554;43.600;1.480;2023-07-20T10:37:49;32.10;1.00
14924;DHT22;7554;43.600;1.480;2023-07-20T10:40:32;32.40;1.00
14924;DHT22;7554;43.600;1.480;2023-07-20T10:43:02;31.80;1.00
14924;DHT22;7554;43.600;1.480;2023-07-20T10:45:47;32.20;1.00
14924;DHT22;7554;43.600;1.480;2023-07-20T10:48:16;33.10;1.00
14924;DHT22;7554;43.600;1.480;2023-07-20T10:50:45;33.30;1.00
14924;DHT22;7554;43.600;1.480;2023-07-20T10:53:15;33.20;1.00
14924;DHT22;7554;43.600;1.480;2023-07-20T10:55:43;33.10;1.00
14924;DHT22;7554;43.600;1.480;2023-07-20T10:58:13;32.70;1.00
14924;DHT22;7554;43.600;1.480;2023-07-20T11:01:01;32.70;1.00
14924;DHT22;7554;43.600;1.480;2023-07-20T11:03:31;32.40;1.00
14924;DHT22;7554;43.600;1.480;2023-07-20T11:05:58;32.60;1.00
14924;DHT22;7554;43.600;1.480;2023-07-20T11:08:40;32.20;1.00
14924;DHT22;7554;43.600;1.480;2023-07-20T11:11:23;32.30;1.00
14924;DHT22;7554;43.600;1.480;2023-07-20T11:13:55;32.20;1.00
14924;DHT22;7554;43.600;1.480;2023-07-20T11:16:40;32.10;1.00
14924;DHT22;7554;43.600;1.480;2023-07-20T11:19:15;31.80;1.00
14924;DHT22;7554;43.600;1.480;2023-07-20T11:21:44;30.90;1.00
14924;DHT22;7554;43.600;1.480;2023-07-20T11:24:13;30.30;1.00
14924;DHT22;7554;43.600;1.480;2023-07-20T11:26:42;30.10;1.00
14924;DHT22;7554;43.600;1.480;2023-07-20T11:29:08;30.30;1.00
14924;DHT22;7554;43.600;1.480;2023-07-20T11:31:36;30.50;1.00
14924;DHT22;7554;43.600;1.480;2023-07-20T11:34:04;30.00;1.00
14924;DHT22;7554;43.600;1.480;2023-07-20T11:36:32;30.40;1.00
14924;DHT22;7554;43.600;1.480;2023-07-20T11:39:00;30.70;1.00
14924;DHT22;7554;43.600;1.480;2023-07-20T11:41:32;30.50;1.00
14924;DHT22;7554;43.600;1.480;2023-07-20T11:43:59;30.10;1.00
14924;DHT22;7554;43.600;1.480;2023-07-20T11:46:28;30.30;1.00
14924;DHT22;7554;43.600;1.480;2023-07-20T11:48:57;30.50;1.00
14924;DHT22;7554;43.600;1.480;2023-07-20T11:51:26;30.60;1.00
14924;DHT22;7554;43.600;1.480;2023-07-20T11:53:54;30.70;1.00
14924;DHT22;7554;43.600;1.480;2023-07-20T11:56:25;30.00;1.00
14924;DHT22;7554;43.600;1.480;2023-07-20T11:58:57;30.40;1.00
14924;DHT22;7554;43.600;1.480;2023-07-20T12:01:26;30.80;1.00
14924;DHT22;7554;43.600;1.480;2023-07-20T12:03:55;30.80;1.00
14924;DHT22;7554;43.600;1.480;2023-07-20T12:06:24;30.70;1.00
14924;DHT22;7554;43.600;1.480;2023-07-20T12:08:54;30.80;1.00
14924;DHT22;7554;43.600;1.480;2023-07-20T12:11:33;29.90;1.00
14924;DHT22;7554;43.600;1.480;2023-07-20T12:14:03;29.10;1.00
14924;DHT22;7554;43.600;1.480;2023-07-20T12:16:30;29.60;1.00
14924;DHT22;7554;43.600;1.480;2023-07-20T12:19:01;29.50;1.00
14924;DHT22;7554;43.600;1.480;2023-07-20T12:21:29;29.80;1.00
14924;DHT22;7554;43.600;1.480;2023-07-20T12:23:57;30.00;1.00
14924;DHT22;7554;43.600;1.480;2023-07-20T12:26:25;30.20;1.00
14924;DHT22;7554;43.600;1.480;2023-07-20T12:28:53;29.70;1.00
14924;DHT22;7554;43.600;1.480;2023-07-20T12:31:22;29.60;1.00
14924;DHT22;7554;43.600;1.480;2023-07-20T12:33:50;30.10;1.00
14924;DHT22;7554;43.600;1.480;2023-07-20T12:36:17;30.30;1.00
14924;DHT22;7554;43.600;1.480;2023-07-20T12:38:45;30.40;1.00
14924;DHT22;7554;43.600;1.480;2023-07-20T12:41:13;30.40;1.00
14924;DHT22;7554;43.600;1.480;2023-07-20T12:43:40;28.90;1.00
14924;DHT22;7554;43.600;1.480;2023-07-20T12:46:08;28.80;1.00
14924;DHT22;7554;43.600;1.480;2023-07-20T12:48:37;28.90;1.00
14924;DHT22;7554;43.600;1.480;2023-07-20T12:51:07;29.40;1.00
14924;DHT22;7554;43.600;1.480;2023-07-20T12:53:34;29.70;1.00
14924;DHT22;7554;43.600;1.480;2023-07-20T12:56:01;29.70;1.00
14924;DHT22;7554;43.600;1.480;2023-07-20T12:58:29;29.60;1.00
14924;DHT22;7554;43.600;1.480;2023-07-20T13:00:56;29.80;1.00
14924;DHT22;7554;43.600;1.480;2023-07-20T13:03:24;30.00;1.00
14924;DHT22;7554;43.600;1.480;2023-07-20T13:05:52;29.60;1.00
14924;DHT22;7554;43.600;1.480;2023-07-20T13:08:20;29.40;1.00
14924;DHT22;7554;43.600;1.480;2023-07-20T13:10:51;29.60;1.00
14924;DHT22;7554;43.600;1.480;2023-07-20T13:13:18;30.00;1.00
14924;DHT22;7554;43.600;1.480;2023-07-20T13:15:46;30.20;1.00
14924;DHT22;7554;43.600;1.480;2023-07-20T13:18:14;30.20;1.00
14924;DHT22;7554;43.600;1.480;2023-07-20T13:20:41;30.30;1.00
14924;DHT22;7554;43.600;1.480;2023-07-20T13:23:10;30.40;1.00
14924;DHT22;7554;43.600;1.480;2023-07-20T13:25:37;30.10;1.00
14924;DHT22;7554;43.600;1.480;2023-07-20T13:28:05;30.10;1.00
14924;DHT22;7554;43.600;1.480;2023-07-20T13:30:32;30.10;1.00
14924;DHT22;7554;43.600;1.480;2023-07-20T13:33:00;30.30;1.00
14924;DHT22;7554;43.600;1.480;2023-07-20T13:35:27;30.30;1.00
14924;DHT22;7554;43.600;1.480;2023-07-20T13:37:54;30.30;1.00
14924;DHT22;7554;43.600;1.480;2023-07-20T13:40:23;30.30;1.00
14924;DHT22;7554;43.600;1.480;2023-07-20T13:42:50;30.40;1.00
14924;DHT22;7554;43.600;1.480;2023-07-20T13:45:17;30.40;1.00
14924;DHT22;7554;43.600;1.480;2023-07-20T13:47:45;30.60;1.00
14924;DHT22;7554;43.600;1.480;2023-07-20T13:50:12;30.50;1.00
14924;DHT22;7554;43.600;1.480;2023-07-20T13:52:39;30.50;1.00
14924;DHT22;7554;43.600;1.480;2023-07-20T13:55:07;30.60;1.00
14924;DHT22;7554;43.600;1.480;2023-07-20T13:57:36;29.60;1.00
14924;DHT22;7554;43.600;1.480;2023-07-20T14:00:04;29.80;1.00
14924;DHT22;7554;43.600;1.480;2023-07-20T14:02:34;30.00;1.00
14924;DHT22;7554;43.600;1.480;2023-07-20T14:05:02;29.60;1.00
14924;DHT22;7554;43.600;1.480;2023-07-20T14:07:29;29.80;1.00
14924;DHT22;7554;43.600;1.480;2023-07-20T14:09:57;30.00;1.00
14924;DHT22;7554;43.600;1.480;2023-07-20T14:12:25;30.00;1.00
14924;DHT22;7554;43.600;1.480;2023-07-20T14:14:53;30.20;1.00
14924;DHT22;7554;43.600;1.480;2023-07-20T14:17:21;30.00;1.00
14924;DHT22;7554;43.600;1.480;2023-07-20T14:19:48;30.00;1.00
14924;DHT22;7554;43.600;1.480;2023-07-20T14:22:16;30.10;1.00
14924;DHT22;7554;43.600;1.480;2023-07-20T14:24:44;30.20;1.00
14924;DHT22;7554;43.600;1.480;2023-07-20T14:27:11;30.20;1.00
14924;DHT22;7554;43.600;1.480;2023-07-20T14:29:38;30.40;1.00
14924;DHT22;7554;43.600;1.480;2023-07-20T14:32:08;30.30;1.00
14924;DHT22;7554;43.600;1.480;2023-07-20T14:34:35;30.30;1.00
14924;DHT22;7554;43.600;1.480;2023-07-20T14:37:02;30.20;1.00
14924;DHT22;7554;43.600;1.480;2023-07-20T14:39:30;30.20;1.00
14924;DHT22;7554;43.600;1.480;2023-07-20T14:41:58;30.10;1.00
14924;DHT22;7554;43.600;1.480;2023-07-20T14:44:25;30.10;1.00
14924;DHT22;7554;43.600;1.480;2023-07-20T14:46:52;30.20;1.00
14924;DHT22;7554;43.600;1.480;2023-07-20T14:49:21;30.30;1.00
14924;DHT22;7554;43.600;1.480;2023-07-20T14:51:48;30.10;1.00
14924;DHT22;7554;43.600;1.480;2023-07-20T14:54:16;30.20;1.00
14924;DHT22;7554;43.600;1.480;2023-07-20T14:56:49;30.20;1.00
14924;DHT22;7554;43.600;1.480;2023-07-20T14:59:18;30.10;1.00
14924;DHT22;7554;43.600;1.480;2023-07-20T15:01:45;30.20;1.00
14924;DHT22;7554;43.600;1.480;2023-07-20T15:04:13;30.20;1.00
14924;DHT22;7554;43.600;1.480;2023-07-20T15:06:41;30.30;1.00
14924;DHT22;7554;43.600;1.480;2023-07-20T15:09:09;30.10;1.00
14924;DHT22;7554;43.600;1.480;2023-07-20T15:11:36;30.10;1.00
14924;DHT22;7554;43.600;1.480;2023-07-20T15:14:04;30.20;1.00
14924;DHT22;7554;43.600;1.480;2023-07-20T15:16:31;30.20;1.00
14924;DHT22;7554;43.600;1.480;2023-07-20T15:18:58;30.10;1.00
14924;DHT22;7554;43.600;1.480;2023-07-20T15:21:25;30.00;1.00
14924;DHT22;7554;43.600;1.480;2023-07-20T15:23:57;30.00;1.00
14924;DHT22;7554;43.600;1.480;2023-07-20T15:26:25;30.10;1.00
14924;DHT22;7554;43.600;1.480;2023-07-20T15:28:52;30.00;1.00
14924;DHT22;7554;43.600;1.480;2023-07-20T15:31:20;29.90;1.00
14924;DHT22;7554;43.600;1.480;2023-07-20T15:33:47;29.90;1.00
14924;DHT22;7554;43.600;1.480;2023-07-20T15:36:14;29.50;1.00
14924;DHT22;7554;43.600;1.480;2023-07-20T15:38:41;29.60;1.00
14924;DHT22;7554;43.600;1.480;2023-07-20T15:41:10;29.70;1.00
14924;DHT22;7554;43.600;1.480;2023-07-20T15:43:38;29.80;1.00
14924;DHT22;7554;43.600;1.480;2023-07-20T15:49:09;29.70;1.00
14924;DHT22;7554;43.600;1.480;2023-07-20T15:51:37;29.60;1.00
14924;DHT22;7554;43.600;1.480;2023-07-20T15:54:07;29.70;1.00
14924;DHT22;7554;43.600;1.480;2023-07-20T15:56:38;29.70;1.00
14924;DHT22;7554;43.600;1.480;2023-07-20T15:59:10;29.70;1.00
14924;DHT22;7554;43.600;1.480;2023-07-20T16:01:38;29.60;1.00
14924;DHT22;7554;43.600;1.480;2023-07-20T16:04:06;29.60;1.00
14924;DHT22;7554;43.600;1.480;2023-07-20T16:06:34;29.60;1.00
14924;DHT22;7554;43.600;1.480;2023-07-20T16:09:02;29.30;1.00
14924;DHT22;7554;43.600;1.480;2023-07-20T16:11:30;29.30;1.00
14924;DHT22;7554;43.600;1.480;2023-07-20T16:13:59;29.30;1.00